createdAt,value
2018-05-21T00:01:31.094Z,3.70
2018-05-21T00:03:58.581Z,4.03
2018-05-21T00:06:26.050Z,4.30
2018-05-21T00:08:53.554Z,5.17
2018-05-21T00:11:21.026Z,4.50
2018-05-21T00:13:48.546Z,4.50
2018-05-21T00:16:16.049Z,5.00
2018-05-21T00:18:43.553Z,4.57
2018-05-21T00:21:11.042Z,4.37
2018-05-21T00:23:38.510Z,3.90
2018-05-21T00:26:06.003Z,4.60
2018-05-21T00:28:33.465Z,4.90
2018-05-21T00:31:00.974Z,4.10
2018-05-21T00:33:28.440Z,4.67
2018-05-21T00:35:55.933Z,4.33
2018-05-21T00:38:23.448Z,3.80
2018-05-21T00:40:51.713Z,3.83
2018-05-21T00:43:19.972Z,3.70
2018-05-21T00:45:48.254Z,3.37
2018-05-21T00:48:16.477Z,3.73
2018-05-21T00:50:44.004Z,2.87
2018-05-21T00:53:12.234Z,3.27
2018-05-21T00:55:39.743Z,4.77
2018-05-21T00:58:07.985Z,3.80
2018-05-21T01:00:35.457Z,3.50
2018-05-21T01:03:03.725Z,4.63
2018-05-21T01:05:31.208Z,3.20
2018-05-21T01:07:59.497Z,3.90
2018-05-21T01:10:27.006Z,3.50
2018-05-21T01:12:54.846Z,3.73
2018-05-21T01:15:22.314Z,4.60
2018-05-21T01:17:49.852Z,3.23
2018-05-21T01:20:17.333Z,4.00
2018-05-21T01:22:44.842Z,4.07
2018-05-21T01:25:13.093Z,3.77
2018-05-21T01:27:40.595Z,3.60
2018-05-21T01:30:08.857Z,3.80
2018-05-21T01:32:37.103Z,3.60
2018-05-21T01:35:04.614Z,3.53
2018-05-21T01:37:32.111Z,4.10
2018-05-21T01:39:59.629Z,3.50
2018-05-21T01:42:27.106Z,4.20
2018-05-21T01:44:54.849Z,4.07
2018-05-21T01:47:22.317Z,3.80
2018-05-21T01:49:49.837Z,4.67
2018-05-21T01:52:17.313Z,4.40
2018-05-21T01:54:45.732Z,4.10
2018-05-21T01:57:13.329Z,4.10
2018-05-21T01:59:40.809Z,4.13
2018-05-21T02:02:09.113Z,4.23
2018-05-21T02:04:36.585Z,4.47
2018-05-21T02:07:04.095Z,4.10
2018-05-21T02:09:32.354Z,5.00
2018-05-21T02:12:00.627Z,4.77
2018-05-21T02:14:28.105Z,5.30
2018-05-21T02:16:55.610Z,5.03
2018-05-21T02:19:23.073Z,4.50
2018-05-21T02:21:50.612Z,5.13
2018-05-21T02:24:19.016Z,4.80
2018-05-21T02:26:46.548Z,5.20
2018-05-21T02:29:14.032Z,4.40
2018-05-21T02:31:41.533Z,4.80
2018-05-21T02:34:09.014Z,4.83
2018-05-21T02:36:37.301Z,5.27
2018-05-21T02:39:05.625Z,4.50
2018-05-21T02:41:33.110Z,5.10
2018-05-21T02:44:01.379Z,5.60
2018-05-21T02:46:28.872Z,4.93
2018-05-21T02:48:56.611Z,4.60
2018-05-21T02:51:24.846Z,4.37
2018-05-21T02:53:52.366Z,4.77
2018-05-21T02:56:19.849Z,4.80
2018-05-21T02:58:47.336Z,5.90
2018-05-21T03:01:14.835Z,5.10
2018-05-21T03:03:43.103Z,4.97
2018-05-21T03:06:10.613Z,5.70
2018-05-21T03:08:38.114Z,4.83
2018-05-21T03:11:06.347Z,5.23
2018-05-21T03:13:33.850Z,5.60
2018-05-21T03:16:01.345Z,5.37
2018-05-21T03:18:28.836Z,4.77
2018-05-21T03:20:56.351Z,5.30
2018-05-21T03:23:24.577Z,5.30
2018-05-21T03:25:52.077Z,4.40
2018-05-21T03:28:20.327Z,4.93
2018-05-21T03:30:47.833Z,5.13
2018-05-21T03:33:15.324Z,5.87
2018-05-21T03:35:42.821Z,5.40
2018-05-21T03:38:11.089Z,5.03
2018-05-21T03:40:38.565Z,4.90
2018-05-21T03:43:06.843Z,6.30
2018-05-21T03:45:35.091Z,5.63
2018-05-21T03:48:02.589Z,6.03
2018-05-21T03:50:30.085Z,5.70
2018-05-21T03:52:57.579Z,6.03
2018-05-21T03:55:25.058Z,5.93
2018-05-21T03:57:53.314Z,5.67
2018-05-21T04:00:33.801Z,5.83
2018-05-21T04:06:07.013Z,6.00
2018-05-21T04:08:35.290Z,6.17
2018-05-21T04:11:03.526Z,6.10
2018-05-21T04:13:31.008Z,5.70
2018-05-21T04:15:59.258Z,6.13
2018-05-21T04:18:26.762Z,6.13
2018-05-21T04:20:55.015Z,6.43
2018-05-21T04:23:22.483Z,6.23
2018-05-21T04:25:50.759Z,6.30
2018-05-21T04:28:19.030Z,7.20
2018-05-21T04:30:46.533Z,6.50
2018-05-21T04:33:14.016Z,7.00
2018-05-21T04:35:41.492Z,6.50
2018-05-21T04:38:08.969Z,5.70
2018-05-21T04:40:36.475Z,6.50
2018-05-21T04:43:03.955Z,6.73
2018-05-21T04:45:31.447Z,6.37
2018-05-21T04:47:59.686Z,6.90
2018-05-21T04:50:27.172Z,6.77
2018-05-21T04:52:54.658Z,6.47
2018-05-21T04:55:22.165Z,6.60
2018-05-21T04:57:49.649Z,7.30
2018-05-21T05:00:17.917Z,7.10
2018-05-21T05:02:45.425Z,7.43
2018-05-21T05:05:12.941Z,6.63
2018-05-21T05:07:40.528Z,7.30
2018-05-21T05:10:07.961Z,7.80
2018-05-21T05:12:35.479Z,6.97
2018-05-21T05:15:02.950Z,7.30
2018-05-21T05:17:30.454Z,6.80
2018-05-21T05:19:58.685Z,7.30
2018-05-21T05:22:26.177Z,7.20
2018-05-21T05:24:53.688Z,6.50
2018-05-21T05:27:21.204Z,6.83
2018-05-21T05:29:49.440Z,7.00
2018-05-21T05:32:16.944Z,7.33
2018-05-21T05:34:45.203Z,7.77
2018-05-21T05:37:12.721Z,7.50
2018-05-21T05:39:40.234Z,7.30
2018-05-21T05:42:08.543Z,7.37
2018-05-21T05:44:35.977Z,7.97
2018-05-21T05:47:04.213Z,7.30
2018-05-21T05:49:31.745Z,7.43
2018-05-21T05:51:59.225Z,7.83
2018-05-21T05:54:26.724Z,6.83
2018-05-21T05:56:54.979Z,8.13
2018-05-21T05:59:22.464Z,7.70
2018-05-21T06:01:50.730Z,8.70
2018-05-21T06:04:18.961Z,7.07
2018-05-21T06:06:46.465Z,7.60
2018-05-21T06:09:14.714Z,8.50
2018-05-21T06:11:42.203Z,8.00
2018-05-21T06:14:10.457Z,7.63
2018-05-21T06:16:37.983Z,8.00
2018-05-21T06:19:05.444Z,9.47
2018-05-21T06:21:32.950Z,6.67
2018-05-21T06:24:00.458Z,7.67
2018-05-21T06:26:27.959Z,8.40
2018-05-21T06:28:55.426Z,7.30
2018-05-21T06:31:22.953Z,8.10
2018-05-21T06:33:50.517Z,7.47
2018-05-21T06:36:17.964Z,7.70
2018-05-21T06:38:45.466Z,7.80
2018-05-21T06:41:13.752Z,7.47
2018-05-21T06:43:42.018Z,7.63
2018-05-21T06:46:10.253Z,7.80
2018-05-21T06:48:37.765Z,8.07
2018-05-21T06:51:06.015Z,7.57
2018-05-21T06:53:33.523Z,7.60
2018-05-21T06:56:01.010Z,6.50
2018-05-21T06:58:28.514Z,6.63
2018-05-21T07:00:56.768Z,7.60
2018-05-21T07:03:24.286Z,7.30
2018-05-21T07:05:51.777Z,7.13
2018-05-21T07:08:19.293Z,7.57
2018-05-21T07:10:46.782Z,7.73
2018-05-21T07:13:14.272Z,7.70
2018-05-21T07:15:41.769Z,6.70
2018-05-21T07:18:09.340Z,7.70
2018-05-21T07:20:37.566Z,7.00
2018-05-21T07:23:05.081Z,7.50
2018-05-21T07:25:32.551Z,6.57
2018-05-21T07:28:00.029Z,7.10
2018-05-21T07:30:27.541Z,6.83
2018-05-21T07:32:55.027Z,7.20
2018-05-21T07:35:22.521Z,6.80
2018-05-21T07:37:49.991Z,8.40
2018-05-21T07:40:18.242Z,6.80
2018-05-21T07:42:45.718Z,7.40
2018-05-21T07:45:13.981Z,7.37
2018-05-21T07:47:42.978Z,7.70
2018-05-21T07:50:10.516Z,7.50
2018-05-21T07:52:38.049Z,7.37
2018-05-21T07:55:05.565Z,6.80
2018-05-21T07:57:33.060Z,6.97
2018-05-21T08:00:00.599Z,6.77
2018-05-21T08:02:28.900Z,6.33
2018-05-21T08:04:56.374Z,7.30
2018-05-21T08:07:23.882Z,6.77
2018-05-21T08:09:51.362Z,6.53
2018-05-21T08:12:18.871Z,6.40
2018-05-21T08:14:46.455Z,6.53
2018-05-21T08:17:13.869Z,6.70
2018-05-21T08:19:41.373Z,6.33
2018-05-21T08:22:10.393Z,7.03
2018-05-21T08:24:38.650Z,6.60
2018-05-21T08:27:06.893Z,6.47
2018-05-21T08:29:34.428Z,7.30
2018-05-21T08:32:02.621Z,6.07
2018-05-21T08:34:30.129Z,7.17
2018-05-21T08:36:58.437Z,7.47
2018-05-21T08:39:25.952Z,8.10
2018-05-21T08:41:54.210Z,7.00
2018-05-21T08:44:21.706Z,7.47
2018-05-21T08:46:49.199Z,7.10
2018-05-21T08:49:16.958Z,6.80
2018-05-21T08:51:44.456Z,7.87
2018-05-21T08:54:11.973Z,6.30
2018-05-21T08:56:39.546Z,6.90
2018-05-21T08:59:06.927Z,6.60
2018-05-21T09:01:34.406Z,6.97
2018-05-21T09:04:02.686Z,6.97
2018-05-21T09:06:31.071Z,6.80
2018-05-21T09:08:59.339Z,6.27
2018-05-21T09:11:26.828Z,6.07
2018-05-21T09:13:54.306Z,6.17
2018-05-21T09:16:21.816Z,5.80
2018-05-21T09:18:49.280Z,6.37
2018-05-21T09:21:17.553Z,5.67
2018-05-21T09:23:45.020Z,5.30
2018-05-21T09:26:13.263Z,5.30
2018-05-21T09:28:40.769Z,6.30
2018-05-21T09:31:09.015Z,6.07
2018-05-21T09:33:36.509Z,5.80
2018-05-21T09:36:04.015Z,5.00
2018-05-21T09:38:31.487Z,5.00
2018-05-21T09:40:58.972Z,5.80
2018-05-21T09:43:26.513Z,4.87
2018-05-21T09:45:54.826Z,5.43
2018-05-21T09:48:22.394Z,4.80
2018-05-21T09:50:49.861Z,4.70
2018-05-21T09:53:17.368Z,5.00
2018-05-21T09:55:44.829Z,4.53
2018-05-21T09:58:12.325Z,5.20
2018-05-21T10:00:39.803Z,5.50
2018-05-21T10:03:07.297Z,4.67
2018-05-21T10:05:35.597Z,4.80
2018-05-21T10:08:03.894Z,4.57
2018-05-21T10:10:31.373Z,4.30
2018-05-21T10:12:58.857Z,5.50
2018-05-21T10:15:27.108Z,5.63
2018-05-21T10:17:54.592Z,6.20
2018-05-21T10:20:22.098Z,5.73
2018-05-21T10:22:49.623Z,5.33
2018-05-21T10:25:17.096Z,5.27
2018-05-21T10:27:45.354Z,5.50
2018-05-21T10:30:12.849Z,5.03
2018-05-21T10:32:40.331Z,5.07
2018-05-21T10:35:07.814Z,4.80
2018-05-21T10:37:35.314Z,4.67
2018-05-21T10:40:03.582Z,5.13
2018-05-21T10:42:31.822Z,5.70
2018-05-21T10:44:59.328Z,5.60
2018-05-21T10:47:27.574Z,4.70
2018-05-21T10:49:55.071Z,5.17
2018-05-21T10:52:22.537Z,5.70
2018-05-21T10:54:50.046Z,5.00
2018-05-21T10:57:17.524Z,5.50
2018-05-21T10:59:44.997Z,5.77
2018-05-21T11:02:12.497Z,4.90
2018-05-21T11:04:40.044Z,6.50
2018-05-21T11:07:08.260Z,5.33
2018-05-21T11:09:35.736Z,5.40
2018-05-21T11:12:04.069Z,4.80
2018-05-21T11:14:31.529Z,5.30
2018-05-21T11:16:58.993Z,4.73
2018-05-21T11:19:26.568Z,4.50
2018-05-21T11:21:54.057Z,4.70
2018-05-21T11:24:22.317Z,4.20
2018-05-21T11:26:49.794Z,4.27
2018-05-21T11:29:18.059Z,3.67
2018-05-21T11:31:46.364Z,4.80
2018-05-21T11:34:14.629Z,3.80
2018-05-21T11:36:42.879Z,4.30
2018-05-21T11:39:10.392Z,4.80
2018-05-21T11:41:37.890Z,3.87
2018-05-21T11:44:06.901Z,4.20
2018-05-21T11:46:35.181Z,4.90
2018-05-21T11:49:02.681Z,4.60
2018-05-21T11:51:30.207Z,5.10
2018-05-21T11:53:58.471Z,3.90
2018-05-21T11:56:25.976Z,4.50
2018-05-21T11:58:53.452Z,4.33
2018-05-21T12:01:20.969Z,3.97
2018-05-21T12:03:49.225Z,3.17
2018-05-21T12:06:17.489Z,3.80
2018-05-21T12:08:44.957Z,3.40
2018-05-21T12:11:13.956Z,3.03
2018-05-21T12:13:42.200Z,3.00
2018-05-21T12:16:09.690Z,3.80
2018-05-21T12:18:37.945Z,3.30
2018-05-21T12:21:05.450Z,3.50
2018-05-21T12:23:32.933Z,3.80
2018-05-21T12:26:00.436Z,3.90
2018-05-21T12:28:27.953Z,3.67
2018-05-21T12:30:55.461Z,3.60
2018-05-21T12:33:23.698Z,3.40
2018-05-21T12:35:51.178Z,3.10
2018-05-21T12:38:18.690Z,3.53
2018-05-21T12:40:46.153Z,3.93
2018-05-21T12:43:13.670Z,3.10
2018-05-21T12:45:41.128Z,3.57
2018-05-21T12:48:09.400Z,3.63
2018-05-21T12:50:36.918Z,3.50
2018-05-21T12:53:04.415Z,3.53
2018-05-21T12:55:31.906Z,3.40
2018-05-21T12:58:00.184Z,3.17
2018-05-21T13:00:27.651Z,3.20
2018-05-21T13:02:55.125Z,3.27
2018-05-21T13:05:22.637Z,3.43
2018-05-21T13:07:50.137Z,3.80
2018-05-21T13:10:17.652Z,3.60
2018-05-21T13:12:45.928Z,4.33
2018-05-21T13:15:14.201Z,3.37
2018-05-21T13:17:41.672Z,3.70
2018-05-21T13:20:09.946Z,3.63
2018-05-21T13:22:38.192Z,3.13
2018-05-21T13:25:05.668Z,3.10
2018-05-21T13:27:33.149Z,3.70
2018-05-21T13:30:01.423Z,4.40
2018-05-21T13:32:29.653Z,3.43
2018-05-21T13:34:57.150Z,3.50
2018-05-21T13:37:25.409Z,3.43
2018-05-21T13:39:54.392Z,3.30
2018-05-21T13:42:22.715Z,3.80
2018-05-21T13:44:50.194Z,3.17
2018-05-21T13:47:17.698Z,3.80
2018-05-21T13:49:45.182Z,3.50
2018-05-21T13:52:13.539Z,3.70
2018-05-21T13:54:40.933Z,3.60
2018-05-21T13:57:08.429Z,3.70
2018-05-21T13:59:35.901Z,3.70
2018-05-21T14:02:03.427Z,3.70
2018-05-21T14:04:30.954Z,3.27
2018-05-21T14:06:59.219Z,3.33
2018-05-21T14:09:26.701Z,2.90
2018-05-21T14:11:54.181Z,4.00
2018-05-21T14:14:21.679Z,3.70
2018-05-21T14:16:50.649Z,3.83
2018-05-21T14:19:18.157Z,3.43
2018-05-21T14:21:46.398Z,3.67
2018-05-21T14:24:13.909Z,3.40
2018-05-21T14:26:41.413Z,3.90
2018-05-21T14:29:08.986Z,3.30
2018-05-21T14:31:38.002Z,4.00
2018-05-21T14:34:06.276Z,3.50
2018-05-21T14:36:34.528Z,3.00
2018-05-21T14:39:03.502Z,3.70
2018-05-21T14:41:31.006Z,4.00
2018-05-21T14:43:59.245Z,3.90
2018-05-21T14:46:26.738Z,3.77
2018-05-21T14:48:54.974Z,3.37
2018-05-21T14:51:22.472Z,2.97
2018-05-21T14:53:50.736Z,3.40
2018-05-21T14:56:18.271Z,4.00
2018-05-21T14:58:45.755Z,2.87
2018-05-21T15:01:13.264Z,2.93
2018-05-21T15:03:40.756Z,3.13
2018-05-21T15:06:08.241Z,3.00
2018-05-21T15:08:36.513Z,3.23
2018-05-21T15:11:03.985Z,3.00
2018-05-21T15:13:32.265Z,4.53
2018-05-21T15:16:00.512Z,3.33
2018-05-21T15:18:28.010Z,3.30
2018-05-21T15:20:56.233Z,3.23
2018-05-21T15:23:23.757Z,3.07
2018-05-21T15:25:51.245Z,2.70
2018-05-21T15:28:18.747Z,2.90
2018-05-21T15:30:47.021Z,2.70
2018-05-21T15:33:16.100Z,3.20
2018-05-21T15:35:43.583Z,2.90
2018-05-21T15:38:11.851Z,3.03
2018-05-21T15:40:39.356Z,2.70
2018-05-21T15:43:06.822Z,3.23
2018-05-21T15:45:34.332Z,3.10
2018-05-21T15:48:02.634Z,2.80
2018-05-21T15:50:30.106Z,3.07
2018-05-21T15:52:57.626Z,2.90
2018-05-21T15:55:25.147Z,2.73
2018-05-21T15:57:52.634Z,3.50
2018-05-21T16:00:21.747Z,3.37
2018-05-21T16:02:50.034Z,3.10
2018-05-21T16:05:18.313Z,3.23
2018-05-21T16:07:46.552Z,3.13
2018-05-21T16:10:14.085Z,3.40
2018-05-21T16:12:41.541Z,3.30
2018-05-21T16:15:09.027Z,3.63
2018-05-21T16:17:36.534Z,3.47
2018-05-21T16:20:04.009Z,3.90
2018-05-21T16:22:31.499Z,3.37
2018-05-21T16:24:58.985Z,4.03
2018-05-21T16:27:27.251Z,4.00
2018-05-21T16:29:54.722Z,4.03
2018-05-21T16:32:22.977Z,4.40
2018-05-21T16:34:50.441Z,4.80
2018-05-21T16:37:17.917Z,4.10
2018-05-21T16:39:46.176Z,3.93
2018-05-21T16:42:13.719Z,3.60
2018-05-21T16:44:41.229Z,4.00
2018-05-21T16:47:08.701Z,4.30
2018-05-21T16:49:36.204Z,4.17
2018-05-21T16:52:03.679Z,3.90
2018-05-21T16:54:31.953Z,4.33
2018-05-21T16:56:59.434Z,4.00
2018-05-21T16:59:27.703Z,4.17
2018-05-21T17:01:55.977Z,4.00
2018-05-21T17:04:24.242Z,4.90
2018-05-21T17:06:52.511Z,4.37
2018-05-21T17:09:19.993Z,4.00
2018-05-21T17:11:48.284Z,4.20
2018-05-21T17:14:15.774Z,3.70
2018-05-21T17:16:43.263Z,3.67
2018-05-21T17:19:10.831Z,4.07
2018-05-21T17:21:39.111Z,4.37
2018-05-21T17:24:06.598Z,4.33
2018-05-21T17:26:34.093Z,3.80
2018-05-21T17:29:01.566Z,4.30
2018-05-21T17:31:29.094Z,4.50
2018-05-21T17:33:56.578Z,3.87
2018-05-21T17:36:24.053Z,3.93
2018-05-21T17:38:51.555Z,4.37
2018-05-21T17:41:19.052Z,3.87
2018-05-21T17:43:46.582Z,4.03
2018-05-21T17:46:14.057Z,4.17
2018-05-21T17:48:41.545Z,3.90
2018-05-21T17:51:09.062Z,4.60
2018-05-21T17:53:36.617Z,4.30
2018-05-21T17:56:04.084Z,4.87
2018-05-21T17:58:31.593Z,4.10
2018-05-21T18:00:59.845Z,3.43
2018-05-21T18:03:27.333Z,4.10
2018-05-21T18:05:55.623Z,4.10
2018-05-21T18:08:23.920Z,4.50
2018-05-21T18:10:51.401Z,4.00
2018-05-21T18:13:18.874Z,4.60
2018-05-21T18:15:46.400Z,4.10
2018-05-21T18:18:14.010Z,3.70
2018-05-21T18:20:41.500Z,4.47
2018-05-21T18:23:08.978Z,3.70
2018-05-21T18:25:36.527Z,4.00
2018-05-21T18:28:04.027Z,4.30
2018-05-21T18:30:31.509Z,4.40
2018-05-21T18:32:59.065Z,4.33
2018-05-21T18:35:27.326Z,4.50
2018-05-21T18:37:54.825Z,3.50
2018-05-21T18:40:23.125Z,3.87
2018-05-21T18:42:50.640Z,3.90
2018-05-21T18:45:18.113Z,4.00
2018-05-21T18:47:46.382Z,4.27
2018-05-21T18:50:13.896Z,3.70
2018-05-21T18:52:41.398Z,4.63
2018-05-21T18:55:09.653Z,4.30
2018-05-21T18:57:37.149Z,4.33
2018-05-21T19:00:05.435Z,4.30
2018-05-21T19:02:33.735Z,4.07
2018-05-21T19:05:01.250Z,4.50
2018-05-21T19:07:29.504Z,4.30
2018-05-21T19:09:56.990Z,4.47
2018-05-21T19:12:25.270Z,3.53
2018-05-21T19:14:53.549Z,4.40
2018-05-21T19:17:21.777Z,5.30
2018-05-21T19:19:49.294Z,3.97
2018-05-21T19:22:17.546Z,4.07
2018-05-21T19:24:45.860Z,3.40
2018-05-21T19:27:13.328Z,3.80
2018-05-21T19:29:40.854Z,3.67
2018-05-21T19:32:09.113Z,3.00
2018-05-21T19:34:36.597Z,4.37
2018-05-21T19:37:04.862Z,2.97
2018-05-21T19:39:33.160Z,2.63
2018-05-21T19:42:00.728Z,3.20
2018-05-21T19:44:28.233Z,2.93
2018-05-21T19:46:55.710Z,3.30
2018-05-21T19:49:23.249Z,2.50
2018-05-21T19:51:50.776Z,3.13
2018-05-21T19:54:18.293Z,2.97
2018-05-21T19:56:46.591Z,2.63
2018-05-21T19:59:14.096Z,3.10
2018-05-21T20:01:41.654Z,3.13
2018-05-21T20:04:09.146Z,3.53
2018-05-21T20:06:37.618Z,3.13
2018-05-21T20:09:05.130Z,2.87
2018-05-21T20:11:32.627Z,3.43
2018-05-21T20:14:00.505Z,3.07
2018-05-21T20:16:28.068Z,4.60
2018-05-21T20:18:55.569Z,3.83
2018-05-21T20:21:23.074Z,3.50
2018-05-21T20:23:50.594Z,3.20
2018-05-21T20:26:18.094Z,3.83
2018-05-21T20:28:45.635Z,3.60
2018-05-21T20:31:13.179Z,4.13
2018-05-21T20:33:40.691Z,2.97
2018-05-21T20:36:08.215Z,3.17
2018-05-21T20:38:35.707Z,3.70
2018-05-21T20:41:03.241Z,3.23
2018-05-21T20:43:30.766Z,3.30
2018-05-21T20:45:58.268Z,3.60
2018-05-21T20:48:25.756Z,2.83
2018-05-21T20:50:54.032Z,2.93
2018-05-21T20:53:22.283Z,3.57
2018-05-21T20:55:50.548Z,3.97
2018-05-21T20:58:18.053Z,4.30
2018-05-21T21:00:46.304Z,3.40
2018-05-21T21:03:13.842Z,3.30
2018-05-21T21:05:41.329Z,3.67
2018-05-21T21:08:09.610Z,3.07
2018-05-21T21:10:37.955Z,3.40
2018-05-21T21:13:05.382Z,3.90
2018-05-21T21:15:32.899Z,3.20
2018-05-21T21:18:00.428Z,2.87
2018-05-21T21:20:27.901Z,3.30
2018-05-21T21:22:56.196Z,3.10
2018-05-21T21:25:23.699Z,3.07
2018-05-21T21:27:52.845Z,3.07
2018-05-21T21:30:42.932Z,2.90
2018-05-21T21:33:10.933Z,3.23
2018-05-21T21:35:39.201Z,3.50
2018-05-21T21:38:10.797Z,3.43
2018-05-21T21:40:38.985Z,2.90
2018-05-21T21:43:06.500Z,3.17
2018-05-21T21:45:35.203Z,3.10
2018-05-21T21:48:09.345Z,3.07
2018-05-21T21:50:37.796Z,3.37
2018-05-21T21:53:05.265Z,3.73
2018-05-21T21:55:32.754Z,3.77
2018-05-21T21:58:00.236Z,3.60
2018-05-21T22:00:28.508Z,3.17
2018-05-21T22:02:56.448Z,3.63
2018-05-21T22:05:24.576Z,3.67
2018-05-21T22:07:52.809Z,3.23
2018-05-21T22:10:21.164Z,3.87
2018-05-21T22:12:49.566Z,3.30
2018-05-21T22:15:17.070Z,3.30
2018-05-21T22:17:45.358Z,4.07
2018-05-21T22:20:12.864Z,4.40
2018-05-21T22:22:41.174Z,3.90
2018-05-21T22:25:09.442Z,3.20
2018-05-21T22:27:37.115Z,3.90
2018-05-21T22:30:06.143Z,3.47
2018-05-21T22:32:34.497Z,4.03
2018-05-21T22:35:02.736Z,3.50
2018-05-21T22:37:31.823Z,4.07
2018-05-21T22:39:59.308Z,3.70
2018-05-21T22:42:28.067Z,3.57
2018-05-21T22:44:55.597Z,4.73
2018-05-21T22:47:23.086Z,3.23
2018-05-21T22:49:50.585Z,3.37
2018-05-21T22:52:18.815Z,4.13
2018-05-21T22:54:46.332Z,4.03
2018-05-21T22:57:13.843Z,3.33
2018-05-21T22:59:41.309Z,3.57
2018-05-21T23:02:08.854Z,4.20
2018-05-21T23:04:36.337Z,4.43
2018-05-21T23:07:03.817Z,3.77
2018-05-21T23:09:32.105Z,4.13
2018-05-21T23:11:59.679Z,4.20
2018-05-21T23:14:27.268Z,4.30
2018-05-21T23:16:55.459Z,4.00
2018-05-21T23:19:22.965Z,4.37
2018-05-21T23:21:50.448Z,3.50
2018-05-21T23:24:18.050Z,4.33
2018-05-21T23:26:46.328Z,3.90
2018-05-21T23:29:13.814Z,3.87
2018-05-21T23:31:41.302Z,4.37
2018-05-21T23:34:08.797Z,4.33
2018-05-21T23:36:37.548Z,4.13
2018-05-21T23:39:05.845Z,4.23
2018-05-21T23:41:33.351Z,4.70
2018-05-21T23:44:01.615Z,4.30
2018-05-21T23:46:29.866Z,4.90
2018-05-21T23:48:57.361Z,4.53
2018-05-21T23:51:24.845Z,4.50
2018-05-21T23:53:52.387Z,4.70
2018-05-21T23:56:19.877Z,4.23
2018-05-21T23:58:47.385Z,4.40
